Katonah, NY (10536)

12:43 PM EDT on August 30, 2015 (GMT -0400)
Lake Purdys | | Change Station
CLOSE
Current Station
Personal Weather Station
Location: Purdys, NY
Elevation: 312 ft
Nearby Weather Stations

Elev 312 ft 41.33 °N, 73.67 °W | Updated 24 seconds ago

Partly Cloudy
Partly Cloudy
84.7 °F
Feels Like 86 °F
N
0.0
Wind Variable Wind from East
Gusts 0.0 mph

Today
High -- | Low -- °F
--% Chance of Precip.
Yesterday
High -- | Low -- °F
Precip. -- in
6:18 AM 7:31 PM
Full, 99% visible
Pressure 30.10 in
Visibility 10.0 miles
Clouds Mostly Cloudy 7500 ft
Mostly Cloudy 11000 ft
Heat Index 86 °F
Dew Point 65 °F
Humidity 51%
Rainfall 0.00 in
Snow Depth Not available.
UV 6.0 out of 12
Pollen 9.90 out of 12
Air Quality Not available.
Flu Activity Not available.
METAR KDXR 301553Z 23007KT 210V270 10SM BKN075 BKN110 28/16 A3011 RMK AO2 SLP192 T02830156
Pressure 30.10 in
Visibility 10.0 miles
Clouds Mostly Cloudy 7500 ft
Mostly Cloudy 11000 ft
Heat Index 86 °F
Dew Point 65 °F
Humidity 51%
Rainfall 0.00 in
Snow Depth Not available.
UV 6.0 out of 12
Pollen 9.90 out of 12
Air Quality Not available.
Flu Activity Not available.
METAR KDXR 301553Z 23007KT 210V270 10SM BKN075 BKN110 28/16 A3011 RMK AO2 SLP192 T02830156

10-Day Weather Forecast

×

Almanac

Astronomy

Aug. 30, 2015 Rise Set
Actual Time
Civil Twilight
Nautical Twilight
Astronomical Twilight
Moon
Length of Visible Light
Length of Day
Tomorrow will be .
, % of the Moon is Illuminated

Today's Extremes

State Highs State Lows

Community

WunderPhotos

Upload Photos

1,851,008 photos uploaded!

WunderBlogs® & News

Nearby

Air Quality

  Air Quality AQ Index Pollutant
Not available.

Snow Depth

Station Depth Elevation

Earthquake Activity

City Distance Mag. Time & Date
Minimum magnitude displayed is 2.5.

Coastal Water Temperatures

Place Temperature

Stations

Nearby Weather Stations

Station Location Temp. Windchill Dew Point Humidity Wind Precip. Elev Updated Type